Time;durP1;ratioP1;P1;durP2;ratioP2;P2;SDS_P1;SDS_P2;PMS_P1;PMS_P2;Temp;Humidity;BMP_temperature;BMP_pressure;BME280_temperature;BME280_humidity;BME280_pressure;Samples;Min_cycle;Max_cycle;Signal;HPM_P1;HPM_P2
2024/01/08 00:04:38;;;;;;;2.47;1.17;;;;;;;-0.61;51.02;100795.03;10515070;28;20118;-65
2024/01/08 00:09:40;;;;;;;1.85;1.20;;;;;;;-0.84;51.52;100791.63;10515024;28;20054;-65
2024/01/08 00:14:42;;;;;;;1.90;1.27;;;;;;;-0.69;51.16;100789.06;10514367;28;20036;-64
2024/01/08 00:19:44;;;;;;;1.65;1.33;;;;;;;-0.71;50.59;100792.47;10515320;28;20116;-64
2024/01/08 00:24:46;;;;;;;1.48;1.25;;;;;;;-0.69;51.03;100794.19;10515137;28;20101;-66
2024/01/08 00:29:48;;;;;;;1.98;1.58;;;;;;;-0.71;51.50;100790.75;10520037;28;20139;-64
2024/01/08 00:34:50;;;;;;;1.63;1.17;;;;;;;-0.57;50.49;100789.03;10523564;28;20500;-65
2024/01/08 00:39:52;;;;;;;1.10;0.98;;;;;;;-0.47;50.54;100790.75;10522954;28;20121;-65
2024/01/08 00:44:53;;;;;;;1.45;1.10;;;;;;;-0.61;50.66;100784.75;10523228;28;20040;-66
2024/01/08 00:49:56;;;;;;;3.33;1.05;;;;;;;-0.61;50.62;100791.59;10523129;28;20048;-63
2024/01/08 00:55:04;;;;;;;1.10;0.98;;;;;;;-0.70;50.29;100786.50;10522693;28;20043;-65
2024/01/08 01:00:11;;;;;;;1.67;1.30;;;;;;;-0.79;50.33;100782.22;10521257;28;20135;-65
2024/01/08 01:05:13;;;;;;;1.38;0.90;;;;;;;-0.86;50.07;100800.19;10521415;28;20385;-64
2024/01/08 01:10:15;;;;;;;0.93;0.88;;;;;;;-0.83;49.00;100806.19;10521183;28;20044;-65
2024/01/08 01:15:17;;;;;;;1.60;0.95;;;;;;;-0.79;49.52;100802.75;10522006;28;20044;-65
2024/01/08 01:20:19;;;;;;;2.35;1.20;;;;;;;-0.84;49.28;100801.88;10520452;28;20051;-65
2024/01/08 01:25:21;;;;;;;0.90;0.90;;;;;;;-1.09;48.79;100810.44;10536782;28;20047;-65
2024/01/08 01:30:23;;;;;;;6.40;0.85;;;;;;;-0.96;49.33;100804.44;10520557;28;20144;-65
2024/01/08 01:35:25;;;;;;;1.50;0.95;;;;;;;-0.91;49.42;100801.91;10536933;27;20404;-66
2024/01/08 01:40:27;;;;;;;1.23;0.90;;;;;;;-0.88;49.13;100801.91;10519361;28;20055;-65
2024/01/08 01:45:29;;;;;;;1.38;0.98;;;;;;;-0.90;49.36;100804.44;10520588;28;20064;-65
2024/01/08 01:50:31;;;;;;;0.70;0.65;;;;;;;-1.02;48.39;100819.84;10520608;28;20196;-65
2024/01/08 01:55:34;;;;;;;1.60;0.95;;;;;;;-0.90;49.17;100809.59;10520594;28;20048;-64
2024/01/08 02:00:36;;;;;;;1.08;0.80;;;;;;;-0.93;48.72;100809.59;10520677;28;20072;-65
2024/01/08 02:05:38;;;;;;;1.95;1.00;;;;;;;-1.03;49.27;100809.59;10519358;28;20067;-65
2024/01/08 02:10:40;;;;;;;0.85;0.82;;;;;;;-1.09;48.52;100813.00;10519011;28;20381;-65
2024/01/08 02:15:42;;;;;;;1.10;1.00;;;;;;;-0.97;48.56;100823.28;10519105;28;20039;-65
2024/01/08 02:20:44;;;;;;;1.00;0.80;;;;;;;-0.94;49.16;100818.16;10519058;28;20046;-63
2024/01/08 02:25:46;;;;;;;1.10;1.00;;;;;;;-0.76;49.23;100812.19;10518225;28;20543;-64
2024/01/08 02:30:48;;;;;;;1.00;0.90;;;;;;;-1.15;48.74;100807.88;10486048;28;20047;-64
2024/01/08 02:35:51;;;;;;;1.45;1.00;;;;;;;-0.95;49.19;100815.59;10500715;28;20127;-63
2024/01/08 02:40:53;;;;;;;1.40;1.05;;;;;;;-1.09;49.27;100809.59;10518023;28;20491;-64
2024/01/08 02:45:55;;;;;;;1.17;0.90;;;;;;;-1.13;49.17;100816.44;10518558;28;20040;-65
2024/01/08 02:50:57;;;;;;;3.50;1.48;;;;;;;-1.14;49.77;100807.00;10518401;28;20062;-64
2024/01/08 02:56:00;;;;;;;1.15;0.98;;;;;;;-1.06;49.50;100805.31;10518379;28;20116;-64
2024/01/08 03:01:02;;;;;;;2.20;1.35;;;;;;;-1.17;49.41;100825.81;10516730;28;20509;-64
2024/01/08 03:06:05;;;;;;;1.58;1.02;;;;;;;-1.21;49.82;100816.41;10517992;28;20130;-63
2024/01/08 03:11:07;;;;;;;1.15;1.00;;;;;;;-1.09;50.25;100813.00;10517060;28;20105;-63
2024/01/08 03:16:10;;;;;;;1.23;1.00;;;;;;;-1.02;50.12;100819.84;10516492;28;20488;-64
2024/01/08 03:21:12;;;;;;;1.48;1.10;;;;;;;-1.00;49.86;100820.72;10517203;28;20085;-65
2024/01/08 03:26:14;;;;;;;1.17;0.90;;;;;;;-1.19;50.11;100809.56;10516707;28;20032;-64
2024/01/08 03:31:16;;;;;;;1.35;1.00;;;;;;;-1.00;50.27;100812.16;10515797;28;20074;-64
2024/01/08 03:36:18;;;;;;;2.58;1.17;;;;;;;-0.99;50.24;100817.31;10516427;28;20048;-65
2024/01/08 03:41:20;;;;;;;3.10;1.15;;;;;;;-1.03;50.34;100813.03;10515827;28;20134;-65
2024/01/08 03:46:22;;;;;;;3.15;1.45;;;;;;;-0.94;50.58;100812.19;10515832;28;20048;-65
2024/01/08 03:51:24;;;;;;;0.98;0.90;;;;;;;-0.93;50.56;100813.88;10514540;28;20048;-64
2024/01/08 03:56:26;;;;;;;2.42;1.48;;;;;;;-0.99;50.42;100816.44;10481238;28;20181;-64
2024/01/08 04:01:28;;;;;;;1.25;1.00;;;;;;;-1.15;50.88;100813.84;10513239;28;20127;-64
2024/01/08 04:06:30;;;;;;;1.77;1.35;;;;;;;-1.08;50.74;100814.72;10515490;28;20056;-64
2024/01/08 04:11:32;;;;;;;1.40;1.00;;;;;;;-1.18;50.70;100833.50;10515063;28;20423;-64
2024/01/08 04:16:37;;;;;;;1.70;1.23;;;;;;;-1.21;51.28;100828.41;10496189;28;20036;-65
2024/01/08 04:21:39;;;;;;;3.05;1.40;;;;;;;-1.34;51.41;100824.94;10515896;28;20140;-64
2024/01/08 04:26:41;;;;;;;1.20;1.08;;;;;;;-1.21;51.53;100829.22;10515119;28;20611;-65
2024/01/08 04:31:43;;;;;;;2.33;1.30;;;;;;;-1.36;51.64;100842.03;10514287;28;20036;-64
2024/01/08 04:36:45;;;;;;;1.75;1.25;;;;;;;-1.23;51.64;100836.06;10515152;28;20052;-65
2024/01/08 04:41:47;;;;;;;3.35;1.45;;;;;;;-1.20;51.73;100830.97;10514208;28;20736;-64
2024/01/08 04:46:49;;;;;;;2.85;1.38;;;;;;;-1.16;51.88;100837.81;10497491;28;20520;-64
2024/01/08 04:51:51;;;;;;;1.98;1.35;;;;;;;-1.07;51.95;100831.84;10513906;28;20051;-64
2024/01/08 04:56:55;;;;;;;1.23;1.08;;;;;;;-1.10;51.94;100833.56;10514358;28;20052;-64
2024/01/08 05:01:57;;;;;;;1.58;1.10;;;;;;;-1.17;52.01;100837.81;10514906;28;20083;-63
2024/01/08 05:07:00;;;;;;;1.55;1.17;;;;;;;-1.12;52.14;100840.41;10513910;28;20143;-64
2024/01/08 05:12:02;;;;;;;2.72;1.33;;;;;;;-1.25;51.12;100847.22;10514000;28;20444;-64
2024/01/08 05:17:05;;;;;;;1.58;1.20;;;;;;;-1.37;51.53;100842.03;10520283;28;20044;-63
2024/01/08 05:22:07;;;;;;;1.58;1.00;;;;;;;-1.38;51.09;100842.88;10521572;28;20066;-64
2024/01/08 05:27:09;;;;;;;1.63;1.23;;;;;;;-1.22;50.98;100854.91;10521448;28;20075;-64
2024/01/08 05:32:11;;;;;;;1.83;1.23;;;;;;;-1.36;51.38;100849.72;10535510;28;20419;-65
2024/01/08 05:37:13;;;;;;;3.70;1.40;;;;;;;-1.22;51.34;100849.75;10521760;28;20523;-64
2024/01/08 05:42:15;;;;;;;3.05;1.55;;;;;;;-1.12;51.07;100848.94;10520718;28;20492;-64
2024/01/08 05:47:17;;;;;;;1.60;1.10;;;;;;;-1.23;50.11;100856.59;10520054;28;20123;-64
2024/01/08 05:52:21;;;;;;;1.55;1.15;;;;;;;-1.15;50.83;100843.81;10520586;28;20117;-63
2024/01/08 05:57:23;;;;;;;6.55;1.60;;;;;;;-1.23;50.59;100845.50;10519645;28;20442;-64
2024/01/08 06:02:25;;;;;;;2.42;1.27;;;;;;;-1.12;50.54;100848.09;10501240;28;20040;-65
2024/01/08 06:07:27;;;;;;;2.05;1.15;;;;;;;-1.08;50.37;100845.50;10519352;28;20129;-65
2024/01/08 06:12:30;;;;;;;3.15;1.60;;;;;;;-1.08;50.66;100850.66;10518211;28;20076;-64
2024/01/08 06:17:32;;;;;;;3.55;1.50;;;;;;;-1.01;50.62;100849.81;10517793;28;20059;-64
2024/01/08 06:22:34;;;;;;;2.53;1.17;;;;;;;-1.00;50.36;100848.13;10519431;28;20519;-65
2024/01/08 06:27:36;;;;;;;2.78;1.20;;;;;;;-1.13;50.49;100852.38;10517993;28;20043;-64
2024/01/08 06:32:38;;;;;;;3.53;1.42;;;;;;;-1.00;50.71;100853.25;10515988;28;20063;-65
2024/01/08 06:37:42;;;;;;;2.25;1.17;;;;;;;-1.17;50.30;100856.59;10518453;28;20056;-64
2024/01/08 06:42:44;;;;;;;1.73;1.25;;;;;;;-1.36;50.87;100860.00;10499672;28;20052;-65
2024/01/08 06:48:01;;;;;;;1.60;1.17;;;;;;;-1.47;51.36;100861.66;10518570;28;20496;-64
2024/01/08 06:53:03;;;;;;;1.75;1.02;;;;;;;-1.38;51.22;100865.97;10500271;28;20084;-64
2024/01/08 06:58:06;;;;;;;1.10;1.00;;;;;;;-1.29;51.56;100861.72;10517787;28;20071;-65
2024/01/08 07:03:07;;;;;;;1.90;1.30;;;;;;;-1.26;51.64;100860.88;10518077;28;20044;-64
2024/01/08 07:08:10;;;;;;;2.42;1.40;;;;;;;-1.34;51.73;100867.69;10517124;28;20108;-64
2024/01/08 07:13:12;;;;;;;1.90;1.20;;;;;;;-1.35;52.08;100863.44;10517437;28;20126;-64
2024/01/08 07:18:15;;;;;;;2.55;1.30;;;;;;;-1.41;52.16;100865.97;10516404;28;20044;-65
2024/01/08 07:23:17;;;;;;;1.45;1.05;;;;;;;-1.46;52.14;100873.66;10498491;28;20040;-65
2024/01/08 07:28:19;;;;;;;1.55;1.20;;;;;;;-1.33;52.24;100879.69;10497516;28;20044;-64
2024/01/08 07:33:21;;;;;;;1.90;1.13;;;;;;;-1.13;52.25;100877.16;10515618;28;20070;-64
2024/01/08 07:38:23;;;;;;;2.15;1.40;;;;;;;-1.19;52.80;100883.16;10515793;28;20064;-63
2024/01/08 07:43:26;;;;;;;3.50;1.30;;;;;;;-0.87;52.96;100876.38;10513922;28;20040;-65
2024/01/08 07:48:28;;;;;;;2.17;1.58;;;;;;;-1.07;52.27;100878.03;10511461;28;20075;-64
2024/01/08 07:53:30;;;;;;;1.92;1.30;;;;;;;-0.99;52.63;100891.75;10497115;28;20146;-65
2024/01/08 07:58:32;;;;;;;3.90;1.42;;;;;;;-1.16;52.41;100896.84;10515594;28;20101;-64
2024/01/08 08:03:43;;;;;;;2.87;1.47;;;;;;;-1.26;52.52;100892.53;10514561;28;20119;-65
2024/01/08 08:08:45;;;;;;;2.10;1.40;;;;;;;-1.23;52.61;100896.81;10515814;28;20075;-64
2024/01/08 08:13:47;;;;;;;1.33;1.10;;;;;;;-1.18;52.23;100901.09;10516152;28;20535;-64
2024/01/08 08:18:49;;;;;;;1.98;1.25;;;;;;;-1.18;51.47;100913.06;10515689;28;20097;-64
2024/01/08 08:23:51;;;;;;;2.50;1.27;;;;;;;-1.23;50.82;100918.19;10498916;28;20587;-64
2024/01/08 08:28:53;;;;;;;3.55;1.50;;;;;;;-1.47;50.14;100917.25;10480638;28;20135;-64
2024/01/08 08:33:55;;;;;;;2.55;1.42;;;;;;;-1.19;50.87;100914.78;10510465;28;20130;-64
2024/01/08 08:38:58;;;;;;;2.78;1.35;;;;;;;-1.27;50.04;100931.03;10512160;28;20063;-65
2024/01/08 08:44:02;;;;;;;2.30;1.50;;;;;;;-1.06;49.86;100920.81;10515179;28;20047;-64
2024/01/08 08:49:06;;;;;;;2.10;1.25;;;;;;;-1.06;49.51;100932.81;10489210;28;20039;-69
2024/01/08 08:54:09;;;;;;;2.75;1.88;;;;;;;-0.77;48.47;100939.72;10522809;28;20432;-69
2024/01/08 08:59:11;;;;;;;2.28;1.40;;;;;;;-0.72;48.81;100943.16;10518990;28;20180;-69
2024/01/08 09:04:13;;;;;;;2.50;1.33;;;;;;;-0.46;47.76;100945.78;10520339;28;20127;-69
2024/01/08 09:09:15;;;;;;;3.25;1.85;;;;;;;-0.99;46.17;100942.22;10502710;28;20040;-69
2024/01/08 09:14:18;;;;;;;2.08;1.35;;;;;;;-1.10;43.94;100955.03;10502838;28;20047;-68
2024/01/08 09:19:20;;;;;;;2.53;1.27;;;;;;;-0.80;46.09;100965.38;10536464;27;20075;-67
2024/01/08 09:24:23;;;;;;;3.80;1.73;;;;;;;-1.11;45.68;100979.00;10520374;28;20485;-68
2024/01/08 09:29:25;;;;;;;2.53;1.60;;;;;;;-1.35;45.56;100978.91;10501081;28;20464;-68
2024/01/08 09:34:29;;;;;;;1.95;1.50;;;;;;;-1.51;45.66;100969.41;10518874;28;20051;-68
2024/01/08 09:39:33;;;;;;;1.95;1.40;;;;;;;-1.20;46.49;100973.81;10520407;28;20044;-68
2024/01/08 09:44:37;;;;;;;4.05;1.50;;;;;;;-1.32;45.18;100989.16;10521228;28;20526;-68
2024/01/08 09:49:40;;;;;;;2.53;1.58;;;;;;;-1.01;45.60;100967.91;10520285;28;20044;-67
2024/01/08 09:54:43;;;;;;;2.17;1.25;;;;;;;-0.82;45.82;100958.56;10502903;28;20067;-67
2024/01/08 09:59:45;;;;;;;3.85;1.75;;;;;;;-0.69;45.96;100953.44;10519264;28;20557;-68
2024/01/08 10:04:47;;;;;;;2.45;1.35;;;;;;;-0.61;45.21;100956.88;10519380;28;20040;-68
2024/01/08 10:09:50;;;;;;;3.55;1.70;;;;;;;-0.59;45.08;100955.16;10519948;28;20055;-67
2024/01/08 10:14:54;;;;;;;4.25;1.60;;;;;;;-0.57;45.94;100957.72;10535814;28;20055;-67
2024/01/08 10:20:07;;;;;;;2.20;1.38;;;;;;;-0.61;45.89;100950.88;10517907;28;20093;-68
2024/01/08 10:25:11;;;;;;;3.75;1.58;;;;;;;-0.74;45.97;100955.13;10519213;28;20036;-68
2024/01/08 10:30:14;;;;;;;4.47;1.60;;;;;;;-0.78;45.54;100957.72;10519621;28;20048;-68
2024/01/08 10:35:16;;;;;;;1.65;1.30;;;;;;;-0.66;45.11;100956.03;10517905;28;20048;-68
2024/01/08 10:40:19;;;;;;;1.98;1.30;;;;;;;-0.85;44.62;100954.25;10518039;28;20060;-67
2024/01/08 10:45:21;;;;;;;4.28;1.60;;;;;;;-0.97;44.94;100961.06;10515771;28;20074;-68
2024/01/08 10:50:24;;;;;;;2.17;1.35;;;;;;;-1.25;44.85;100960.94;10511645;28;20047;-68
2024/01/08 10:55:27;;;;;;;3.28;1.70;;;;;;;-1.25;44.07;100967.81;10515961;28;20036;-68
2024/01/08 11:00:30;;;;;;;3.80;1.65;;;;;;;-1.31;44.36;100966.06;10514478;28;20563;-69
2024/01/08 11:05:35;;;;;;;3.28;1.55;;;;;;;-1.24;44.14;100964.38;10515988;28;20352;-68
2024/01/08 11:10:37;;;;;;;2.22;1.35;;;;;;;-1.30;44.09;100965.22;10498057;28;20059;-69
2024/01/08 11:15:42;;;;;;;4.68;1.70;;;;;;;-1.18;43.99;100965.28;10517148;28;20052;-69
2024/01/08 11:20:46;;;;;;;3.72;1.42;;;;;;;-1.46;42.53;100960.88;10516785;28;20528;-69
2024/01/08 11:25:50;;;;;;;2.28;1.40;;;;;;;-1.29;43.02;100968.66;10516316;28;20138;-69
2024/01/08 11:31:22;;;;;;;2.83;1.35;;;;;;;-1.17;43.49;100963.56;10516436;28;20080;-68
2024/01/08 11:36:49;;;;;;;2.28;1.58;;;;;;;-1.28;42.23;100970.34;10514936;28;20551;-69
2024/01/08 11:41:51;;;;;;;2.55;1.52;;;;;;;-1.34;42.09;100971.19;10498759;28;20782;-69
2024/01/08 11:46:54;;;;;;;3.15;1.50;;;;;;;-1.39;42.22;100960.03;10515077;28;20135;-69
2024/01/08 11:52:00;;;;;;;2.78;1.50;;;;;;;-1.31;41.09;100971.19;10511361;28;20397;-69
2024/01/08 11:57:02;;;;;;;4.05;1.80;;;;;;;-1.60;39.08;100977.03;10513982;28;20105;-69
2024/01/08 12:02:12;;;;;;;4.80;1.70;;;;;;;-1.57;40.15;100975.34;10498183;28;20123;-70
2024/01/08 12:07:14;;;;;;;4.40;1.55;;;;;;;-1.38;40.60;100973.72;10513972;28;20051;-69
2024/01/08 12:12:17;;;;;;;3.38;1.85;;;;;;;-1.61;39.30;100977.84;10514469;28;20139;-69
2024/01/08 12:17:20;;;;;;;2.67;1.70;;;;;;;-1.39;40.20;100972.03;10496522;28;20048;-69
2024/01/08 12:22:25;;;;;;;2.75;1.70;;;;;;;-1.45;37.63;100972.00;10514833;28;20044;-69
2024/01/08 12:27:30;;;;;;;3.83;1.98;;;;;;;-1.25;40.49;100980.66;10524551;28;20052;-69
2024/01/08 12:32:32;;;;;;;3.35;1.90;;;;;;;-1.28;39.09;100985.75;10522978;28;20408;-69
2024/01/08 12:37:35;;;;;;;4.88;1.70;;;;;;;-1.31;39.33;100978.06;10521435;28;20126;-69
2024/01/08 12:42:38;;;;;;;2.85;1.75;;;;;;;-1.15;38.92;100979.84;10503926;28;20044;-69
2024/01/08 12:47:40;;;;;;;3.83;1.73;;;;;;;-0.97;40.01;100977.34;10522961;28;20117;-69
2024/01/08 12:52:42;;;;;;;2.80;1.63;;;;;;;-0.93;39.47;100975.63;10521758;28;20400;-68
2024/01/08 12:57:44;;;;;;;3.10;1.67;;;;;;;-1.56;36.83;100989.03;10521713;28;20138;-67
2024/01/08 13:02:46;;;;;;;5.20;2.22;;;;;;;-1.50;38.70;100979.66;10503959;28;20040;-67
2024/01/08 13:07:49;;;;;;;4.05;2.03;;;;;;;-1.39;39.88;100982.28;10520663;28;20047;-68
2024/01/08 13:12:51;;;;;;;2.75;1.70;;;;;;;-1.47;37.97;100992.50;10520912;28;20143;-68
2024/01/08 13:17:54;;;;;;;2.42;1.50;;;;;;;-1.69;38.29;100987.22;10487661;28;20047;-67
2024/01/08 13:23:02;;;;;;;2.88;1.63;;;;;;;-1.86;37.88;100999.09;10518760;28;20522;-69
2024/01/08 13:28:09;;;;;;;4.50;2.08;;;;;;;-1.85;38.61;100987.97;10493713;28;20048;-68
2024/01/08 13:33:18;;;;;;;3.72;1.80;;;;;;;-1.71;38.81;100988.91;10518213;28;20684;-68
2024/01/08 13:38:25;;;;;;;3.55;1.55;;;;;;;-1.71;39.54;100994.03;10519320;28;20044;-67
2024/01/08 13:43:28;;;;;;;3.20;1.80;;;;;;;-1.74;39.14;100994.03;10534977;27;20552;-67
2024/01/08 13:48:31;;;;;;;4.15;1.90;;;;;;;-2.42;38.51;101004.56;10518105;28;20506;-68
2024/01/08 13:53:33;;;;;;;6.40;2.60;;;;;;;-2.22;40.38;101004.75;10519489;28;20107;-67
2024/01/08 13:58:36;;;;;;;4.20;1.90;;;;;;;-2.23;40.13;101013.28;10518473;28;20040;-68
2024/01/08 14:03:38;;;;;;;4.40;1.63;;;;;;;-2.31;40.27;101009.81;10517724;28;20044;-69
2024/01/08 14:08:40;;;;;;;4.18;1.98;;;;;;;-2.65;40.13;101008.59;10519156;28;20048;-69
2024/01/08 14:13:46;;;;;;;4.68;2.30;;;;;;;-2.42;41.33;101016.53;10499972;28;20159;-68
2024/01/08 14:19:05;;;;;;;6.57;2.35;;;;;;;-2.45;40.65;101022.47;10518150;28;20421;-67
2024/01/08 14:24:11;;;;;;;4.53;1.90;;;;;;;-2.65;40.92;101016.28;10516665;28;20245;-68
2024/01/08 14:29:13;;;;;;;4.88;2.20;;;;;;;-2.72;40.93;101014.50;10518959;28;20487;-67
2024/01/08 14:34:16;;;;;;;6.57;2.33;;;;;;;-2.84;41.77;101022.06;10534655;28;20044;-68
2024/01/08 14:39:19;;;;;;;4.60;2.33;;;;;;;-3.01;41.80;101026.97;10518976;28;20048;-68
2024/01/08 14:44:21;;;;;;;5.60;2.10;;;;;;;-3.09;42.17;101043.06;10512111;28;20399;-68
2024/01/08 14:49:23;;;;;;;3.92;2.38;;;;;;;-3.07;42.39;101043.94;10515540;28;20492;-68
2024/01/08 14:54:26;;;;;;;3.85;1.95;;;;;;;-3.15;43.30;101058.34;10517326;28;20040;-67
2024/01/08 14:59:28;;;;;;;6.90;3.10;;;;;;;-3.21;42.93;101056.56;10481832;28;20066;-67
2024/01/08 15:04:30;;;;;;;4.55;2.03;;;;;;;-3.17;43.24;101050.63;10515688;28;20040;-69
2024/01/08 15:09:36;;;;;;;5.05;2.30;;;;;;;-3.31;43.50;101062.38;10533471;28;20221;-68
2024/01/08 15:14:39;;;;;;;6.00;2.45;;;;;;;-3.00;43.73;101066.22;10531755;27;20059;-68
2024/01/08 15:19:41;;;;;;;5.38;2.75;;;;;;;-3.07;43.58;101066.97;10516776;28;20077;-67
2024/01/08 15:24:43;;;;;;;5.03;2.45;;;;;;;-3.20;43.88;101072.78;10516059;28;20048;-69
2024/01/08 15:29:45;;;;;;;5.07;1.88;;;;;;;-3.29;44.41;101075.19;10516084;28;20407;-68
2024/01/08 15:34:47;;;;;;;6.13;3.08;;;;;;;-3.24;44.66;101076.97;10515903;28;20054;-68
2024/01/08 15:39:50;;;;;;;4.22;2.38;;;;;;;-3.41;44.54;101098.03;10511772;28;20044;-69
2024/01/08 15:44:52;;;;;;;5.20;2.22;;;;;;;-3.53;44.76;101116.59;10513382;28;20539;-68
2024/01/08 15:49:54;;;;;;;6.15;2.65;;;;;;;-3.59;45.01;101113.97;10515409;28;20423;-69
2024/01/08 15:54:56;;;;;;;5.25;2.33;;;;;;;-3.69;44.84;101135.09;10511519;28;20044;-69
2024/01/08 15:59:58;;;;;;;4.78;2.30;;;;;;;-3.58;45.11;101122.47;10513423;28;20047;-68
2024/01/08 16:05:05;;;;;;;16.38;2.85;;;;;;;-3.71;44.87;101129.94;10514348;28;20036;-68
2024/01/08 16:10:08;;;;;;;5.13;2.55;;;;;;;-3.78;45.05;101137.47;10515488;28;20059;-68
2024/01/08 16:15:10;;;;;;;4.38;2.47;;;;;;;-3.82;45.44;101145.94;10514370;28;20385;-68
2024/01/08 16:20:12;;;;;;;4.78;2.55;;;;;;;-3.95;45.08;101144.84;10508608;28;20672;-68
2024/01/08 16:25:14;;;;;;;6.95;2.80;;;;;;;-3.81;44.88;101148.50;10513245;28;20475;-68
2024/01/08 16:30:16;;;;;;;7.85;3.33;;;;;;;-4.00;45.51;101151.59;10514413;28;20048;-67
2024/01/08 16:35:19;;;;;;;5.05;2.53;;;;;;;-4.06;44.74;101163.38;10514169;28;20048;-68
2024/01/08 16:40:21;;;;;;;5.15;2.35;;;;;;;-4.10;44.38;101159.03;10514557;28;20105;-69
2024/01/08 16:45:23;;;;;;;5.05;2.53;;;;;;;-3.96;45.17;101165.28;10497953;28;20506;-69
2024/01/08 16:50:25;;;;;;;5.97;2.22;;;;;;;-3.95;44.82;101169.53;10514261;28;20052;-68
2024/01/08 16:55:27;;;;;;;4.93;2.45;;;;;;;-4.04;44.19;101177.03;10509344;28;20039;-68
2024/01/08 17:00:29;;;;;;;5.53;2.13;;;;;;;-4.09;44.85;101169.28;10494322;28;20049;-68
2024/01/08 17:05:31;;;;;;;5.32;2.78;;;;;;;-3.93;45.21;101176.41;10513275;28;20047;-68
2024/01/08 17:10:33;;;;;;;5.15;2.50;;;;;;;-4.06;44.31;101187.25;10516372;28;20056;-68
2024/01/08 17:15:35;;;;;;;7.93;3.03;;;;;;;-4.50;43.04;101195.69;10521207;28;20055;-68
2024/01/08 17:20:37;;;;;;;5.75;2.67;;;;;;;-4.40;43.61;101204.41;10518357;28;20048;-68
2024/01/08 17:25:41;;;;;;;7.05;2.67;;;;;;;-4.28;44.69;101205.50;10516756;28;20048;-68
2024/01/08 17:30:43;;;;;;;6.20;2.90;;;;;;;-4.14;44.79;101214.34;10517040;28;20138;-69
2024/01/08 17:35:45;;;;;;;7.25;2.53;;;;;;;-4.09;44.86;101212.72;10519485;28;20048;-68
2024/01/08 17:40:47;;;;;;;5.65;2.40;;;;;;;-4.18;44.41;101221.91;10519946;28;20504;-69
2024/01/08 17:45:49;;;;;;;5.20;2.75;;;;;;;-4.31;43.96;101217.34;10519184;28;20046;-66
2024/01/08 17:50:51;;;;;;;6.20;2.72;;;;;;;-4.50;43.62;101236.53;10519895;28;20050;-65
2024/01/08 17:55:53;;;;;;;7.32;3.00;;;;;;;-4.37;44.23;101232.56;10518184;28;20044;-66
2024/01/08 18:00:55;;;;;;;6.63;2.63;;;;;;;-4.34;44.57;101240.28;10498788;28;20495;-65
2024/01/08 18:05:58;;;;;;;4.78;2.30;;;;;;;-4.47;44.36;101245.94;10518746;28;20047;-66
2024/01/08 18:11:01;;;;;;;5.43;2.15;;;;;;;-4.48;43.82;101268.06;10534215;27;20475;-67
2024/01/08 18:16:03;;;;;;;5.55;2.97;;;;;;;-4.70;43.23;101269.28;10534700;27;20048;-67
2024/01/08 18:21:06;;;;;;;5.75;2.80;;;;;;;-4.52;44.43;101276.47;10517600;28;20438;-67
2024/01/08 18:26:08;;;;;;;5.68;2.90;;;;;;;-4.60;43.66;101291.63;10519224;28;20040;-66
2024/01/08 18:31:10;;;;;;;5.93;3.25;;;;;;;-4.71;43.19;101289.66;10484753;28;20122;-66
2024/01/08 18:36:13;;;;;;;7.30;3.38;;;;;;;-4.83;43.34;101295.31;10516429;28;20047;-67
2024/01/08 18:41:15;;;;;;;5.85;2.58;;;;;;;-4.79;43.35;101296.28;10475118;28;20155;-66
2024/01/08 18:46:17;;;;;;;4.60;2.28;;;;;;;-4.92;43.55;101312.97;10476295;28;20127;-67
2024/01/08 18:51:19;;;;;;;5.95;2.75;;;;;;;-4.82;44.33;101311.50;10476171;28;20094;-66
2024/01/08 18:56:21;;;;;;;5.68;2.40;;;;;;;-4.78;44.19;101314.19;10476235;28;20040;-67
2024/01/08 19:01:26;;;;;;;4.47;2.35;;;;;;;-5.03;44.50;101319.50;10476469;28;20568;-66
2024/01/08 19:06:29;;;;;;;8.32;2.60;;;;;;;-5.23;44.15;101324.91;10474539;28;20560;-66
2024/01/08 19:11:32;;;;;;;6.25;3.00;;;;;;;-5.41;44.80;101317.66;10475403;28;20049;-67
2024/01/08 19:16:34;;;;;;;5.75;3.00;;;;;;;-5.44;44.76;101313.34;10475409;28;20052;-66
2024/01/08 19:21:36;;;;;;;10.48;2.95;;;;;;;-5.55;44.80;101334.25;10475409;28;20047;-65
2024/01/08 19:26:38;;;;;;;7.85;2.80;;;;;;;-5.44;44.95;101333.72;10474602;28;20048;-65
2024/01/08 19:31:45;;;;;;;5.72;2.45;;;;;;;-5.51;44.69;101359.88;10506552;28;20066;-65
2024/01/08 19:36:47;;;;;;;6.05;2.28;;;;;;;-5.49;44.91;101336.97;10463408;28;20047;-65
2024/01/08 19:41:49;;;;;;;6.10;2.38;;;;;;;-5.50;44.93;101348.84;10511194;28;20126;-66
2024/01/08 19:46:56;;;;;;;5.85;2.53;;;;;;;-5.34;44.98;101344.19;10498532;28;20496;-66
2024/01/08 19:51:59;;;;;;;4.60;2.63;;;;;;;-5.75;44.85;101359.22;10515166;28;20396;-66
2024/01/08 19:57:01;;;;;;;5.18;2.20;;;;;;;-5.63;45.00;101363.78;10499060;28;20125;-65
2024/01/08 20:02:03;;;;;;;6.03;3.05;;;;;;;-5.64;45.42;101368.00;10498449;28;20400;-66
2024/01/08 20:07:05;;;;;;;4.93;2.78;;;;;;;-5.59;46.05;101369.00;10498558;28;20058;-66
2024/01/08 20:12:08;;;;;;;5.45;2.17;;;;;;;-5.60;45.72;101366.41;10532016;28;20044;-65
2024/01/08 20:17:10;;;;;;;5.07;2.83;;;;;;;-5.61;45.73;101360.47;10515324;28;20479;-65
2024/01/08 20:22:12;;;;;;;4.43;2.28;;;;;;;-5.50;45.72;101363.28;10509626;28;20531;-66
2024/01/08 20:27:14;;;;;;;4.75;2.67;;;;;;;-5.50;46.23;101369.25;10512449;28;20094;-66
2024/01/08 20:32:16;;;;;;;7.35;2.45;;;;;;;-5.57;46.18;101375.00;10513500;28;20381;-66
2024/01/08 20:37:19;;;;;;;7.57;2.80;;;;;;;-5.69;46.10;101376.34;10514084;28;20044;-65
2024/01/08 20:42:21;;;;;;;6.15;2.70;;;;;;;-5.60;46.00;101372.34;10515076;28;20517;-65
2024/01/08 20:47:23;;;;;;;5.70;2.70;;;;;;;-5.81;46.26;101381.09;10521751;28;20047;-65
2024/01/08 20:52:29;;;;;;;4.65;2.63;;;;;;;-5.74;46.44;101368.56;10524023;28;20058;-65
2024/01/08 20:57:31;;;;;;;4.82;2.53;;;;;;;-5.93;46.76;101373.09;10523560;28;21577;-65
2024/01/08 21:02:33;;;;;;;6.80;2.80;;;;;;;-5.95;47.16;101362.00;10523262;28;20051;-65
2024/01/08 21:07:35;;;;;;;3.53;2.33;;;;;;;-5.99;47.14;101361.03;10524050;28;20048;-65
2024/01/08 21:12:38;;;;;;;3.67;2.55;;;;;;;-6.09;47.60;101363.28;10522898;28;20457;-65
2024/01/08 21:17:42;;;;;;;6.00;2.88;;;;;;;-6.11;47.51;101362.38;10522523;28;20048;-65
2024/01/08 21:22:44;;;;;;;5.75;3.00;;;;;;;-6.10;47.73;101361.53;10520147;28;20055;-66
2024/01/08 21:27:46;;;;;;;4.50;2.45;;;;;;;-6.05;48.00;101360.84;10521914;28;20072;-65
2024/01/08 21:32:48;;;;;;;4.22;2.33;;;;;;;-6.07;47.71;101366.72;10519088;28;20048;-65
2024/01/08 21:37:50;;;;;;;6.10;2.92;;;;;;;-6.18;48.02;101368.94;10519719;28;20048;-65
2024/01/08 21:42:52;;;;;;;6.10;2.95;;;;;;;-5.98;47.94;101372.94;10519774;28;20051;-65
2024/01/08 21:47:54;;;;;;;5.45;2.60;;;;;;;-6.09;48.16;101369.22;10520959;28;20044;-65
2024/01/08 21:52:57;;;;;;;6.20;2.28;;;;;;;-6.01;47.88;101367.75;10520027;28;20040;-65
2024/01/08 21:57:59;;;;;;;6.38;2.85;;;;;;;-6.09;48.68;101361.56;10519392;28;20032;-65
2024/01/08 22:03:01;;;;;;;8.57;2.95;;;;;;;-6.06;48.76;101369.31;10501028;28;20048;-65
2024/01/08 22:08:03;;;;;;;6.10;2.88;;;;;;;-6.04;48.31;101365.13;10518396;28;20036;-66
2024/01/08 22:13:05;;;;;;;6.20;2.35;;;;;;;-6.07;48.62;101366.72;10518416;28;20475;-66
2024/01/08 22:18:07;;;;;;;5.43;2.72;;;;;;;-6.06;48.87;101363.34;10498234;28;20050;-66
2024/01/08 22:23:09;;;;;;;5.22;2.72;;;;;;;-6.13;48.85;101369.09;10491472;28;20131;-68
2024/01/08 22:28:11;;;;;;;5.10;2.45;;;;;;;-6.05;49.19;101360.00;10517919;28;20048;-66
2024/01/08 22:33:13;;;;;;;5.85;2.50;;;;;;;-6.03;49.04;101364.28;10484731;28;20128;-66
2024/01/08 22:38:15;;;;;;;4.13;2.25;;;;;;;-6.03;49.00;101369.38;10499130;28;20052;-65
2024/01/08 22:43:17;;;;;;;9.23;3.50;;;;;;;-6.10;49.16;101371.72;10518205;28;20044;-66
2024/01/08 22:48:19;;;;;;;6.80;3.20;;;;;;;-5.96;49.24;101366.22;10517344;28;20059;-66
2024/01/08 22:53:21;;;;;;;4.20;2.97;;;;;;;-5.93;49.67;101363.75;10517152;28;20039;-67
2024/01/08 22:58:23;;;;;;;5.22;2.35;;;;;;;-5.92;49.58;101372.25;10517202;28;20032;-65
2024/01/08 23:03:25;;;;;;;3.60;2.22;;;;;;;-6.00;49.71;101360.97;10497360;28;20051;-65
2024/01/08 23:08:28;;;;;;;5.30;2.65;;;;;;;-5.95;49.75;101364.53;10515637;28;20048;-65
2024/01/08 23:13:30;;;;;;;6.72;2.40;;;;;;;-5.91;50.30;101359.56;10499018;28;20145;-65